»·PEaware :: USC81 KJAC-KEGE

USC81 :: KJAC-KEGE

FLIGHT INFORMATION

Flight Status: Arrived
Operator: Unknown
More flights by this operator :: More flights under this callsign
Pilot: Andy P. (22680)
Aircraft: GATES LEARJET LEARJET 35/36
(LJ35)
More flights by this aircraft type
Origin: KJAC Jackson Hole
United States
Destination: KEGE Eagle Co Regl
United States
More flights between these airports :: More routes between these airports
Route: +ALPIN2 BPI CHE RLG
File this flight plan on PilotEdge
Remarks:
Altitude:
(Current/Filed)
29,000ft
Speed:
(Current/Filed)
465kts
Departed: 17-Oct-20 11:23 AM
Arrived: 17-Oct-20 12:11 PM
Distance/Time
Traveled:
293nm/0:48
Distance/Time
To Go:
Arrived

Flight Plot

Page will automatically refresh every two minutes.

Flight plan parsing failed; only flown route is shown


Map Options




Map Legend


Flown Route
Filed Route
Departure Airport
Arrival Airport
Navaid (VOR, NDB)
Fix

Horizontal Profiles

Position Reports

Time Latitude Longitude Heading Altitude Ground
Speed
17-Oct-20 10:59 43.598888 -110.739037 95 6454ft 0kts
17-Oct-20 11:00 43.598888 -110.739037 95 6454ft 0kts
17-Oct-20 11:01 43.598888 -110.739037 95 6454ft 0kts
17-Oct-20 11:02 43.598888 -110.739037 95 6454ft 0kts
17-Oct-20 11:03 43.598888 -110.739037 95 6454ft 0kts
17-Oct-20 11:04 43.598888 -110.739037 95 6454ft 0kts
17-Oct-20 11:05 43.598888 -110.739037 95 6454ft 0kts
17-Oct-20 11:06 43.598888 -110.739037 95 6454ft 0kts
17-Oct-20 11:07 43.598888 -110.739037 95 6454ft 0kts
17-Oct-20 11:08 43.598888 -110.739037 95 6454ft 0kts
17-Oct-20 11:09 43.598888 -110.739037 95 6454ft 0kts
17-Oct-20 11:10 43.598888 -110.739037 95 6454ft 0kts
17-Oct-20 11:11 43.598888 -110.739037 95 6454ft 0kts
17-Oct-20 11:12 43.598888 -110.739037 95 6454ft 0kts
17-Oct-20 11:13 43.598888 -110.739037 95 6454ft 0kts
17-Oct-20 11:14 43.598888 -110.739037 95 6454ft 0kts
17-Oct-20 11:15 43.599057 -110.738976 317 6454ft 0kts
17-Oct-20 11:16 43.599193 -110.739082 342 6454ft 5kts
17-Oct-20 11:17 43.601262 -110.739107 21 6454ft 11kts
17-Oct-20 11:18 43.606123 -110.736748 19 6454ft 21kts
17-Oct-20 11:19 43.611146 -110.734305 19 6454ft 19kts
17-Oct-20 11:20 43.614889 -110.732637 339 6454ft 0kts
17-Oct-20 11:21 43.615209 -110.733928 199 6454ft 0kts
17-Oct-20 11:22 43.580315 -110.752063 209 7414ft 225kts
17-Oct-20 11:23 43.518155 -110.796703 210 11854ft 264kts
17-Oct-20 11:24 43.448144 -110.841438 213 15053ft 310kts
17-Oct-20 11:25 43.366724 -110.893588 216 18036ft 334kts
17-Oct-20 11:26 43.274863 -110.930102 177 20717ft 389kts
17-Oct-20 11:27 43.183370 -110.837143 143 22832ft 429kts
17-Oct-20 11:28 43.091462 -110.727599 142 25124ft 447kts
17-Oct-20 11:29 42.996680 -110.612295 141 27101ft 463kts
17-Oct-20 11:30 42.898953 -110.493599 141 28765ft 477kts
17-Oct-20 11:31 42.795694 -110.368748 141 29101ft 517kts
17-Oct-20 11:32 42.684676 -110.235109 141 29106ft 548kts
17-Oct-20 11:33 42.569025 -110.094021 138 29104ft 566kts
17-Oct-20 11:34 42.459118 -109.938973 134 29101ft 569kts
17-Oct-20 11:35 42.350650 -109.783856 135 29098ft 567kts
17-Oct-20 11:36 42.241618 -109.629846 135 29061ft 566kts
17-Oct-20 11:37 42.132692 -109.477000 135 29061ft 565kts
17-Oct-20 11:38 42.023340 -109.324407 136 29058ft 564kts
17-Oct-20 11:39 41.914446 -109.173259 136 29058ft 563kts
17-Oct-20 11:40 41.805332 -109.022585 136 29069ft 562kts
17-Oct-20 11:41 41.695920 -108.872298 136 29072ft 562kts
17-Oct-20 11:42 41.586655 -108.722991 136 29072ft 561kts
17-Oct-20 11:43 41.477639 -108.574794 136 29081ft 561kts
17-Oct-20 11:44 41.367852 -108.426306 137 29082ft 561kts
17-Oct-20 11:45 41.258382 -108.279008 137 29082ft 561kts
17-Oct-20 11:46 41.148490 -108.131890 137 29079ft 560kts
17-Oct-20 11:47 41.038656 -107.985590 137 29083ft 559kts
17-Oct-20 11:48 40.928829 -107.840031 137 29107ft 557kts
17-Oct-20 11:49 40.819185 -107.695009 137 29112ft 556kts
17-Oct-20 11:50 40.709444 -107.551357 137 29115ft 554kts
17-Oct-20 11:51 40.602157 -107.410852 137 27399ft 534kts
17-Oct-20 11:52 40.499872 -107.269991 132 25659ft 527kts
17-Oct-20 11:53 40.411493 -107.118311 127 24336ft 518kts
17-Oct-20 11:54 40.322972 -106.974392 131 23429ft 486kts
17-Oct-20 11:55 40.243785 -106.841578 129 21455ft 446kts
17-Oct-20 11:56 40.168617 -106.717020 129 19597ft 425kts
17-Oct-20 11:57 40.096874 -106.597637 130 18151ft 408kts
17-Oct-20 11:59 40.020839 -106.492605 155 16762ft 387kts
17-Oct-20 12:00 39.935734 -106.472416 200 15631ft 255kts
17-Oct-20 12:01 39.874688 -106.496346 209 14878ft 214kts
17-Oct-20 12:02 39.819778 -106.519506 208 14192ft 198kts
17-Oct-20 12:03 39.767746 -106.541448 207 13595ft 200kts
17-Oct-20 12:04 39.714026 -106.564006 206 13101ft 204kts
17-Oct-20 12:05 39.687449 -106.615669 261 12210ft 179kts
17-Oct-20 12:06 39.677995 -106.675238 260 11032ft 184kts
17-Oct-20 12:07 39.667804 -106.740691 258 9651ft 182kts
17-Oct-20 12:08 39.659290 -106.796958 260 8433ft 124kts
17-Oct-20 12:09 39.654447 -106.840430 257 7585ft 120kts
17-Oct-20 12:10 39.646472 -106.883155 258 6905ft 122kts
17-Oct-20 12:11 39.642830 -106.915331 254 6518ft 17kts
17-Oct-20 12:12 39.642077 -106.912060 81 6518ft 18kts
17-Oct-20 12:13 39.642140 -106.906669 82 6518ft 14kts
17-Oct-20 12:14 39.641821 -106.905912 258 6518ft 0kts

Navigation Log

Ident Type
Flight plan parsing failed, navigation log unavailable